sensor_id;sensor_type;location;lat;lon;timestamp;pressure;altitude;pressure_sealevel;temperature;humidity
66668;BME280;57205;51.438;-2.006;2023-02-20T00:00:28;102017.53;;;7.89;100.00
66668;BME280;57205;51.438;-2.006;2023-02-20T00:02:54;102019.53;;;7.93;100.00
66668;BME280;57205;51.438;-2.006;2023-02-20T00:05:19;102004.19;;;7.89;100.00
66668;BME280;57205;51.438;-2.006;2023-02-20T00:07:44;102010.53;;;7.88;100.00
66668;BME280;57205;51.438;-2.006;2023-02-20T00:10:10;102011.97;;;7.90;100.00
66668;BME280;57205;51.438;-2.006;2023-02-20T00:12:35;102013.19;;;7.88;100.00
66668;BME280;57205;51.438;-2.006;2023-02-20T00:15:01;102006.03;;;7.88;100.00
66668;BME280;57205;51.438;-2.006;2023-02-20T00:17:26;101995.16;;;7.90;100.00
66668;BME280;57205;51.438;-2.006;2023-02-20T00:19:52;101993.75;;;7.87;100.00
66668;BME280;57205;51.438;-2.006;2023-02-20T00:22:19;101997.88;;;7.83;100.00
66668;BME280;57205;51.438;-2.006;2023-02-20T00:24:45;101989.22;;;7.88;100.00
66668;BME280;57205;51.438;-2.006;2023-02-20T00:27:11;101987.59;;;7.87;100.00
66668;BME280;57205;51.438;-2.006;2023-02-20T00:29:36;101977.53;;;7.89;100.00
66668;BME280;57205;51.438;-2.006;2023-02-20T00:32:02;101980.44;;;7.87;100.00
66668;BME280;57205;51.438;-2.006;2023-02-20T00:34:27;101986.78;;;7.86;100.00
66668;BME280;57205;51.438;-2.006;2023-02-20T00:36:52;101978.56;;;7.88;100.00
66668;BME280;57205;51.438;-2.006;2023-02-20T00:39:18;101984.72;;;7.88;100.00
66668;BME280;57205;51.438;-2.006;2023-02-20T00:41:43;101969.56;;;7.89;100.00
66668;BME280;57205;51.438;-2.006;2023-02-20T00:44:08;101979.81;;;7.85;100.00
66668;BME280;57205;51.438;-2.006;2023-02-20T00:46:34;101973.44;;;7.86;100.00
66668;BME280;57205;51.438;-2.006;2023-02-20T00:48:59;101977.31;;;7.90;100.00
66668;BME280;57205;51.438;-2.006;2023-02-20T00:51:24;101966.28;;;7.87;100.00
66668;BME280;57205;51.438;-2.006;2023-02-20T00:53:49;101960.94;;;7.87;100.00
66668;BME280;57205;51.438;-2.006;2023-02-20T00:56:15;101963.41;;;7.88;100.00
66668;BME280;57205;51.438;-2.006;2023-02-20T00:58:40;101957.69;;;7.85;100.00
66668;BME280;57205;51.438;-2.006;2023-02-20T01:01:06;101956.22;;;7.89;100.00
66668;BME280;57205;51.438;-2.006;2023-02-20T01:03:31;101954.56;;;7.88;100.00
66668;BME280;57205;51.438;-2.006;2023-02-20T01:05:56;101953.97;;;7.86;100.00
66668;BME280;57205;51.438;-2.006;2023-02-20T01:08:21;101957.69;;;7.85;100.00
66668;BME280;57205;51.438;-2.006;2023-02-20T01:10:47;101951.53;;;7.84;100.00
66668;BME280;57205;51.438;-2.006;2023-02-20T01:13:12;101957.69;;;7.85;100.00
66668;BME280;57205;51.438;-2.006;2023-02-20T01:15:37;101949.69;;;7.85;100.00
66668;BME280;57205;51.438;-2.006;2023-02-20T01:18:02;101942.91;;;7.82;100.00
66668;BME280;57205;51.438;-2.006;2023-02-20T01:20:29;101940.88;;;7.84;100.00
66668;BME280;57205;51.438;-2.006;2023-02-20T01:22:55;101942.53;;;7.79;100.00
66668;BME280;57205;51.438;-2.006;2023-02-20T01:25:20;101942.75;;;7.84;100.00
66668;BME280;57205;51.438;-2.006;2023-02-20T01:27:45;101938.19;;;7.84;100.00
66668;BME280;57205;51.438;-2.006;2023-02-20T01:30:11;101946.41;;;7.83;100.00
66668;BME280;57205;51.438;-2.006;2023-02-20T01:32:36;101935.16;;;7.81;100.00
66668;BME280;57205;51.438;-2.006;2023-02-20T01:35:02;101938.63;;;7.81;100.00
66668;BME280;57205;51.438;-2.006;2023-02-20T01:37:27;101941.53;;;7.80;100.00
66668;BME280;57205;51.438;-2.006;2023-02-20T01:39:52;101930.88;;;7.80;100.00
66668;BME280;57205;51.438;-2.006;2023-02-20T01:42:19;101938.84;;;7.80;100.00
66668;BME280;57205;51.438;-2.006;2023-02-20T01:44:46;101942.31;;;7.80;100.00
66668;BME280;57205;51.438;-2.006;2023-02-20T01:47:14;101945.19;;;7.79;100.00
66668;BME280;57205;51.438;-2.006;2023-02-20T01:49:56;101949.69;;;7.78;100.00
66668;BME280;57205;51.438;-2.006;2023-02-20T01:52:28;101945.63;;;7.76;100.00
66668;BME280;57205;51.438;-2.006;2023-02-20T01:54:59;101946.03;;;7.73;100.00
66668;BME280;57205;51.438;-2.006;2023-02-20T01:57:27;101944.88;;;7.69;100.00
66668;BME280;57205;51.438;-2.006;2023-02-20T01:59:55;101948.13;;;7.71;100.00
66668;BME280;57205;51.438;-2.006;2023-02-20T02:02:22;101949.38;;;7.68;100.00
66668;BME280;57205;51.438;-2.006;2023-02-20T02:04:48;101945.03;;;7.74;100.00
66668;BME280;57205;51.438;-2.006;2023-02-20T02:07:13;101945.66;;;7.69;100.00
66668;BME280;57205;51.438;-2.006;2023-02-20T02:09:51;101946.25;;;7.71;100.00
66668;BME280;57205;51.438;-2.006;2023-02-20T02:12:17;101945.03;;;7.74;100.00
66668;BME280;57205;51.438;-2.006;2023-02-20T02:14:43;101944.66;;;7.70;100.00
66668;BME280;57205;51.438;-2.006;2023-02-20T02:27:47;101934.00;;;7.64;100.00
66668;BME280;57205;51.438;-2.006;2023-02-20T02:36:30;101931.59;;;7.56;100.00
66668;BME280;57205;51.438;-2.006;2023-02-20T02:40:56;101927.66;;;7.65;100.00
66668;BME280;57205;51.438;-2.006;2023-02-20T02:43:28;101928.06;;;7.62;100.00
66668;BME280;57205;51.438;-2.006;2023-02-20T02:46:05;101930.31;;;7.65;100.00
66668;BME280;57205;51.438;-2.006;2023-02-20T02:48:36;101927.06;;;7.63;100.00
66668;BME280;57205;51.438;-2.006;2023-02-20T02:51:13;101923.75;;;7.67;100.00
66668;BME280;57205;51.438;-2.006;2023-02-20T02:53:40;101926.84;;;7.64;100.00
66668;BME280;57205;51.438;-2.006;2023-02-20T02:56:05;101916.78;;;7.66;100.00
66668;BME280;57205;51.438;-2.006;2023-02-20T02:58:46;101916.16;;;7.71;100.00
66668;BME280;57205;51.438;-2.006;2023-02-20T03:01:12;101918.84;;;7.71;100.00
66668;BME280;57205;51.438;-2.006;2023-02-20T03:03:39;101920.28;;;7.67;100.00
66668;BME280;57205;51.438;-2.006;2023-02-20T03:06:12;101912.47;;;7.72;100.00
66668;BME280;57205;51.438;-2.006;2023-02-20T03:08:49;101918.00;;;7.70;100.00
66668;BME280;57205;51.438;-2.006;2023-02-20T03:11:21;101913.09;;;7.67;100.00
66668;BME280;57205;51.438;-2.006;2023-02-20T03:14:09;101915.97;;;7.66;100.00
66668;BME280;57205;51.438;-2.006;2023-02-20T03:19:22;101915.56;;;7.69;100.00
66668;BME280;57205;51.438;-2.006;2023-02-20T03:21:50;101913.75;;;7.63;100.00
66668;BME280;57205;51.438;-2.006;2023-02-20T03:24:17;101917.22;;;7.63;100.00
66668;BME280;57205;51.438;-2.006;2023-02-20T03:26:43;101915.56;;;7.69;100.00
66668;BME280;57205;51.438;-2.006;2023-02-20T03:29:11;101914.34;;;7.65;100.00
66668;BME280;57205;51.438;-2.006;2023-02-20T03:31:45;101913.09;;;7.67;100.00
66668;BME280;57205;51.438;-2.006;2023-02-20T03:34:17;101910.84;;;7.64;100.00
66668;BME280;57205;51.438;-2.006;2023-02-20T03:37:04;101914.50;;;7.70;100.00
66668;BME280;57205;51.438;-2.006;2023-02-20T03:39:50;101908.59;;;7.68;100.00
66668;BME280;57205;51.438;-2.006;2023-02-20T03:42:35;101912.50;;;7.65;100.00
66668;BME280;57205;51.438;-2.006;2023-02-20T03:45:20;101907.19;;;7.65;100.00
66668;BME280;57205;51.438;-2.006;2023-02-20T03:47:48;101911.47;;;7.66;100.00
66668;BME280;57205;51.438;-2.006;2023-02-20T03:50:16;101909.19;;;7.70;100.00
66668;BME280;57205;51.438;-2.006;2023-02-20T03:52:42;101908.19;;;7.71;100.00
66668;BME280;57205;51.438;-2.006;2023-02-20T03:55:07;101912.91;;;7.69;100.00
66668;BME280;57205;51.438;-2.006;2023-02-20T03:57:34;101908.81;;;7.66;100.00
66668;BME280;57205;51.438;-2.006;2023-02-20T04:00:06;101897.94;;;7.68;100.00
66668;BME280;57205;51.438;-2.006;2023-02-20T04:02:35;101901.63;;;7.67;100.00
66668;BME280;57205;51.438;-2.006;2023-02-20T04:05:03;101902.44;;;7.67;100.00
66668;BME280;57205;51.438;-2.006;2023-02-20T04:07:32;101900.81;;;7.66;100.00
66668;BME280;57205;51.438;-2.006;2023-02-20T04:10:00;101898.38;;;7.65;100.00
66668;BME280;57205;51.438;-2.006;2023-02-20T04:12:27;101896.09;;;7.62;100.00
66668;BME280;57205;51.438;-2.006;2023-02-20T04:14:54;101895.72;;;7.58;100.00
66668;BME280;57205;51.438;-2.006;2023-02-20T04:17:23;101895.94;;;7.57;100.00
66668;BME280;57205;51.438;-2.006;2023-02-20T04:19:48;101896.31;;;7.60;100.00
66668;BME280;57205;51.438;-2.006;2023-02-20T04:22:16;101896.75;;;7.57;100.00
66668;BME280;57205;51.438;-2.006;2023-02-20T04:24:46;101897.59;;;7.58;100.00
66668;BME280;57205;51.438;-2.006;2023-02-20T04:27:13;101898.59;;;7.57;100.00
66668;BME280;57205;51.438;-2.006;2023-02-20T04:29:39;101894.31;;;7.56;100.00
66668;BME280;57205;51.438;-2.006;2023-02-20T04:32:04;101880.63;;;7.52;100.00
66668;BME280;57205;51.438;-2.006;2023-02-20T04:34:29;101885.13;;;7.52;100.00
66668;BME280;57205;51.438;-2.006;2023-02-20T04:37:02;101887.78;;;7.52;100.00
66668;BME280;57205;51.438;-2.006;2023-02-20T04:39:28;101884.50;;;7.50;100.00
66668;BME280;57205;51.438;-2.006;2023-02-20T04:41:53;101887.16;;;7.50;100.00
66668;BME280;57205;51.438;-2.006;2023-02-20T04:44:19;101879.78;;;7.52;100.00
66668;BME280;57205;51.438;-2.006;2023-02-20T04:46:56;101877.34;;;7.50;100.00
66668;BME280;57205;51.438;-2.006;2023-02-20T04:49:22;101885.75;;;7.47;100.00
66668;BME280;57205;51.438;-2.006;2023-02-20T04:51:47;101882.47;;;7.45;100.00
66668;BME280;57205;51.438;-2.006;2023-02-20T04:54:12;101884.34;;;7.45;100.00
66668;BME280;57205;51.438;-2.006;2023-02-20T04:56:38;101887.78;;;7.45;100.00
66668;BME280;57205;51.438;-2.006;2023-02-20T04:59:03;101887.59;;;7.47;100.00
66668;BME280;57205;51.438;-2.006;2023-02-20T05:01:28;101885.75;;;7.47;100.00
66668;BME280;57205;51.438;-2.006;2023-02-20T05:03:54;101881.69;;;7.45;100.00
66668;BME280;57205;51.438;-2.006;2023-02-20T05:06:19;101887.41;;;7.42;100.00
66668;BME280;57205;51.438;-2.006;2023-02-20T05:08:44;101890.06;;;7.42;100.00
66668;BME280;57205;51.438;-2.006;2023-02-20T05:11:09;101884.75;;;7.42;100.00
66668;BME280;57205;51.438;-2.006;2023-02-20T05:13:35;101887.19;;;7.43;100.00
66668;BME280;57205;51.438;-2.006;2023-02-20T05:16:00;101887.00;;;7.45;100.00
66668;BME280;57205;51.438;-2.006;2023-02-20T05:18:26;101890.28;;;7.40;100.00
66668;BME280;57205;51.438;-2.006;2023-02-20T05:20:52;101888.44;;;7.41;100.00
66668;BME280;57205;51.438;-2.006;2023-02-20T05:23:36;101891.72;;;7.43;100.00
66668;BME280;57205;51.438;-2.006;2023-02-20T05:26:01;101887.84;;;7.39;100.00
66668;BME280;57205;51.438;-2.006;2023-02-20T05:28:26;101892.94;;;7.40;100.00
66668;BME280;57205;51.438;-2.006;2023-02-20T05:30:51;101898.72;;;7.37;100.00
66668;BME280;57205;51.438;-2.006;2023-02-20T05:33:17;101894.41;;;7.36;100.00
66668;BME280;57205;51.438;-2.006;2023-02-20T05:35:42;101896.84;;;7.38;100.00
66668;BME280;57205;51.438;-2.006;2023-02-20T05:38:07;101893.56;;;7.36;100.00
66668;BME280;57205;51.438;-2.006;2023-02-20T05:40:32;101891.34;;;7.39;100.00
66668;BME280;57205;51.438;-2.006;2023-02-20T05:42:58;101890.50;;;7.39;100.00
66668;BME280;57205;51.438;-2.006;2023-02-20T05:45:23;101894.41;;;7.36;100.00
66668;BME280;57205;51.438;-2.006;2023-02-20T05:47:48;101892.13;;;7.40;100.00
66668;BME280;57205;51.438;-2.006;2023-02-20T05:50:14;101887.84;;;7.39;100.00
66668;BME280;57205;51.438;-2.006;2023-02-20T05:52:40;101889.06;;;7.36;100.00
66668;BME280;57205;51.438;-2.006;2023-02-20T05:55:05;101887.22;;;7.37;100.00
66668;BME280;57205;51.438;-2.006;2023-02-20T05:57:30;101886.19;;;7.38;100.00
66668;BME280;57205;51.438;-2.006;2023-02-20T05:59:56;101881.31;;;7.35;100.00
66668;BME280;57205;51.438;-2.006;2023-02-20T06:02:21;101872.09;;;7.37;100.00
66668;BME280;57205;51.438;-2.006;2023-02-20T06:04:46;101872.28;;;7.36;100.00
66668;BME280;57205;51.438;-2.006;2023-02-20T06:07:11;101872.09;;;7.37;100.00
66668;BME280;57205;51.438;-2.006;2023-02-20T06:09:40;101876.38;;;7.38;100.00
66668;BME280;57205;51.438;-2.006;2023-02-20T06:12:05;101872.88;;;7.38;100.00
66668;BME280;57205;51.438;-2.006;2023-02-20T06:14:31;101866.94;;;7.42;100.00
66668;BME280;57205;51.438;-2.006;2023-02-20T06:16:56;101872.03;;;7.44;100.00
66668;BME280;57205;51.438;-2.006;2023-02-20T06:19:22;101864.47;;;7.41;100.00
66668;BME280;57205;51.438;-2.006;2023-02-20T06:21:48;101870.03;;;7.39;100.00
66668;BME280;57205;51.438;-2.006;2023-02-20T06:24:14;101867.16;;;7.41;100.00
66668;BME280;57205;51.438;-2.006;2023-02-20T06:26:40;101866.31;;;7.40;100.00
66668;BME280;57205;51.438;-2.006;2023-02-20T06:29:06;101864.47;;;7.41;100.00
66668;BME280;57205;51.438;-2.006;2023-02-20T06:31:31;101867.16;;;7.41;100.00
66668;BME280;57205;51.438;-2.006;2023-02-20T06:33:56;101865.88;;;7.43;100.00
66668;BME280;57205;51.438;-2.006;2023-02-20T06:36:26;101863.22;;;7.43;100.00
66668;BME280;57205;51.438;-2.006;2023-02-20T06:38:52;101866.50;;;7.45;100.00
66668;BME280;57205;51.438;-2.006;2023-02-20T06:41:17;101867.31;;;7.46;100.00
66668;BME280;57205;51.438;-2.006;2023-02-20T06:43:42;101863.81;;;7.45;100.00
66668;BME280;57205;51.438;-2.006;2023-02-20T06:46:08;101868.56;;;7.43;100.00
66668;BME280;57205;51.438;-2.006;2023-02-20T06:48:33;101869.38;;;7.44;100.00
66668;BME280;57205;51.438;-2.006;2023-02-20T06:50:58;101875.09;;;7.47;100.00
66668;BME280;57205;51.438;-2.006;2023-02-20T06:53:23;101877.13;;;7.52;100.00
66668;BME280;57205;51.438;-2.006;2023-02-20T06:55:49;101865.81;;;7.56;100.00
66668;BME280;57205;51.438;-2.006;2023-02-20T06:58:14;101860.94;;;7.53;100.00
66668;BME280;57205;51.438;-2.006;2023-02-20T07:00:39;101857.44;;;7.53;100.00
66668;BME280;57205;51.438;-2.006;2023-02-20T07:03:05;101850.06;;;7.55;100.00
66668;BME280;57205;51.438;-2.006;2023-02-20T07:05:30;101848.84;;;7.51;100.00
66668;BME280;57205;51.438;-2.006;2023-02-20T07:07:55;101849.44;;;7.53;100.00
66668;BME280;57205;51.438;-2.006;2023-02-20T07:10:20;101846.00;;;7.52;100.00
66668;BME280;57205;51.438;-2.006;2023-02-20T07:12:45;101836.97;;;7.53;100.00
66668;BME280;57205;51.438;-2.006;2023-02-20T07:15:11;101842.50;;;7.52;100.00
66668;BME280;57205;51.438;-2.006;2023-02-20T07:17:37;101845.56;;;7.55;100.00
66668;BME280;57205;51.438;-2.006;2023-02-20T07:20:02;101856.59;;;7.59;100.00
66668;BME280;57205;51.438;-2.006;2023-02-20T07:22:28;101847.16;;;7.56;100.00
66668;BME280;57205;51.438;-2.006;2023-02-20T07:24:54;101843.88;;;7.61;100.00
66668;BME280;57205;51.438;-2.006;2023-02-20T07:27:19;101846.31;;;7.62;100.00
66668;BME280;57205;51.438;-2.006;2023-02-20T07:29:45;101841.38;;;7.66;100.00
66668;BME280;57205;51.438;-2.006;2023-02-20T07:32:11;101847.31;;;7.68;100.00
66668;BME280;57205;51.438;-2.006;2023-02-20T07:34:36;101853.63;;;7.73;100.00
66668;BME280;57205;51.438;-2.006;2023-02-20T07:37:02;101852.22;;;7.71;100.00
66668;BME280;57205;51.438;-2.006;2023-02-20T07:39:27;101859.56;;;7.75;100.00
66668;BME280;57205;51.438;-2.006;2023-02-20T07:41:52;101862.00;;;7.77;100.00
66668;BME280;57205;51.438;-2.006;2023-02-20T07:44:18;101854.38;;;7.80;100.00
66668;BME280;57205;51.438;-2.006;2023-02-20T07:49:28;101866.25;;;7.84;100.00
66668;BME280;57205;51.438;-2.006;2023-02-20T07:51:54;101875.91;;;7.85;100.00
66668;BME280;57205;51.438;-2.006;2023-02-20T07:54:19;101881.63;;;7.89;100.00
66668;BME280;57205;51.438;-2.006;2023-02-20T07:56:54;101883.00;;;7.91;100.00
66668;BME280;57205;51.438;-2.006;2023-02-20T07:59:19;101873.19;;;7.92;100.00
66668;BME280;57205;51.438;-2.006;2023-02-20T08:01:45;101872.34;;;7.91;100.00
66668;BME280;57205;51.438;-2.006;2023-02-20T08:04:10;101873.78;;;7.94;100.00
66668;BME280;57205;51.438;-2.006;2023-02-20T08:06:35;101877.22;;;8.01;100.00
66668;BME280;57205;51.438;-2.006;2023-02-20T08:09:01;101870.84;;;8.02;100.00
66668;BME280;57205;51.438;-2.006;2023-02-20T08:11:26;101876.78;;;8.04;100.00
66668;BME280;57205;51.438;-2.006;2023-02-20T08:13:52;101871.25;;;8.06;100.00
66668;BME280;57205;51.438;-2.006;2023-02-20T08:16:19;101873.47;;;8.09;100.00
66668;BME280;57205;51.438;-2.006;2023-02-20T08:18:45;101877.56;;;8.11;100.00
66668;BME280;57205;51.438;-2.006;2023-02-20T08:21:13;101880.22;;;8.11;100.00
66668;BME280;57205;51.438;-2.006;2023-02-20T08:23:38;101878.16;;;8.13;100.00
66668;BME280;57205;51.438;-2.006;2023-02-20T08:26:04;101891.41;;;8.20;100.00
66668;BME280;57205;51.438;-2.006;2023-02-20T08:28:30;101881.56;;;8.27;100.00
66668;BME280;57205;51.438;-2.006;2023-02-20T08:30:55;101883.19;;;8.28;100.00
66668;BME280;57205;51.438;-2.006;2023-02-20T08:33:20;101872.69;;;8.33;100.00
66668;BME280;57205;51.438;-2.006;2023-02-20T08:35:45;101865.88;;;8.37;100.00
66668;BME280;57205;51.438;-2.006;2023-02-20T08:40:50;101869.09;;;8.45;100.00
66668;BME280;57205;51.438;-2.006;2023-02-20T08:43:15;101872.75;;;8.51;100.00
66668;BME280;57205;51.438;-2.006;2023-02-20T08:45:40;101878.00;;;8.57;100.00
66668;BME280;57205;51.438;-2.006;2023-02-20T08:48:05;101874.47;;;8.63;100.00
66668;BME280;57205;51.438;-2.006;2023-02-20T08:50:31;101884.06;;;8.64;100.00
66668;BME280;57205;51.438;-2.006;2023-02-20T08:52:56;101889.78;;;8.68;100.00
66668;BME280;57205;51.438;-2.006;2023-02-20T08:55:21;101878.31;;;8.67;100.00
66668;BME280;57205;51.438;-2.006;2023-02-20T08:57:47;101880.91;;;8.74;100.00
66668;BME280;57205;51.438;-2.006;2023-02-20T09:00:13;101885.22;;;8.75;100.00
66668;BME280;57205;51.438;-2.006;2023-02-20T09:02:38;101880.69;;;8.75;100.00
66668;BME280;57205;51.438;-2.006;2023-02-20T09:05:04;101881.28;;;8.77;100.00
66668;BME280;57205;51.438;-2.006;2023-02-20T09:07:29;101878.59;;;8.77;100.00
66668;BME280;57205;51.438;-2.006;2023-02-20T09:09:54;101880.63;;;8.82;100.00
66668;BME280;57205;51.438;-2.006;2023-02-20T09:12:19;101878.56;;;8.84;100.00
66668;BME280;57205;51.438;-2.006;2023-02-20T09:14:45;101868.63;;;8.91;100.00
66668;BME280;57205;51.438;-2.006;2023-02-20T09:17:10;101878.19;;;8.99;100.00
66668;BME280;57205;51.438;-2.006;2023-02-20T09:19:36;101884.25;;;9.06;100.00
66668;BME280;57205;51.438;-2.006;2023-02-20T09:22:01;101874.41;;;9.06;100.00
66668;BME280;57205;51.438;-2.006;2023-02-20T09:24:26;101881.59;;;9.06;100.00
66668;BME280;57205;51.438;-2.006;2023-02-20T09:26:56;101884.41;;;9.11;100.00
66668;BME280;57205;51.438;-2.006;2023-02-20T09:29:21;101890.34;;;9.13;100.00
66668;BME280;57205;51.438;-2.006;2023-02-20T09:31:46;101883.16;;;9.13;100.00
66668;BME280;57205;51.438;-2.006;2023-02-20T09:34:12;101875.72;;;9.15;100.00
66668;BME280;57205;51.438;-2.006;2023-02-20T09:36:37;101880.53;;;9.25;100.00
66668;BME280;57205;51.438;-2.006;2023-02-20T09:39:02;101882.31;;;9.31;100.00
66668;BME280;57205;51.438;-2.006;2023-02-20T09:44:17;101876.78;;;9.44;100.00
66668;BME280;57205;51.438;-2.006;2023-02-20T09:46:47;101870.69;;;9.55;100.00
66668;BME280;57205;51.438;-2.006;2023-02-20T09:51:48;101877.94;;;9.66;100.00
66668;BME280;57205;51.438;-2.006;2023-02-20T09:54:23;101875.41;;;9.71;100.00
66668;BME280;57205;51.438;-2.006;2023-02-20T09:56:57;101874.13;;;9.73;100.00
66668;BME280;57205;51.438;-2.006;2023-02-20T09:59:24;101873.31;;;9.73;100.00
66668;BME280;57205;51.438;-2.006;2023-02-20T10:01:55;101879.69;;;9.72;100.00
66668;BME280;57205;51.438;-2.006;2023-02-20T10:04:26;101876.69;;;9.80;100.00
66668;BME280;57205;51.438;-2.006;2023-02-20T10:06:53;101877.28;;;9.82;100.00
66668;BME280;57205;51.438;-2.006;2023-02-20T10:09:21;101875.22;;;9.84;100.00
66668;BME280;57205;51.438;-2.006;2023-02-20T10:11:49;101873.56;;;9.83;100.00
66668;BME280;57205;51.438;-2.006;2023-02-20T10:15:02;101879.25;;;9.86;100.00
66668;BME280;57205;51.438;-2.006;2023-02-20T10:22:08;101880.34;;;9.97;100.00
66668;BME280;57205;51.438;-2.006;2023-02-20T10:29:43;101877.88;;;10.25;100.00
66668;BME280;57205;51.438;-2.006;2023-02-20T10:32:09;101866.13;;;10.26;100.00
66668;BME280;57205;51.438;-2.006;2023-02-20T10:35:12;101864.16;;;10.33;100.00
66668;BME280;57205;51.438;-2.006;2023-02-20T10:37:34;101860.44;;;10.46;100.00
66668;BME280;57205;51.438;-2.006;2023-02-20T10:40:15;101849.38;;;10.54;100.00
66668;BME280;57205;51.438;-2.006;2023-02-20T10:43:01;101842.75;;;10.56;100.00
66668;BME280;57205;51.438;-2.006;2023-02-20T10:47:59;101835.50;;;10.68;100.00
66668;BME280;57205;51.438;-2.006;2023-02-20T10:50:33;101842.03;;;10.72;100.00
66668;BME280;57205;51.438;-2.006;2023-02-20T10:55:29;101850.88;;;10.85;100.00
66668;BME280;57205;51.438;-2.006;2023-02-20T10:58:01;101850.38;;;10.88;100.00
66668;BME280;57205;51.438;-2.006;2023-02-20T11:00:39;101839.69;;;10.88;100.00
66668;BME280;57205;51.438;-2.006;2023-02-20T11:03:12;101834.91;;;10.90;100.00
66668;BME280;57205;51.438;-2.006;2023-02-20T11:05:40;101834.31;;;10.88;100.00
66668;BME280;57205;51.438;-2.006;2023-02-20T11:08:08;101849.81;;;10.86;100.00
66668;BME280;57205;51.438;-2.006;2023-02-20T11:10:33;101839.47;;;10.77;100.00
66668;BME280;57205;51.438;-2.006;2023-02-20T11:12:59;101834.56;;;10.74;100.00
66668;BME280;57205;51.438;-2.006;2023-02-20T11:15:25;101841.44;;;10.82;100.00
66668;BME280;57205;51.438;-2.006;2023-02-20T11:17:53;101845.63;;;10.78;100.00
66668;BME280;57205;51.438;-2.006;2023-02-20T11:22:57;101835.84;;;10.83;100.00
66668;BME280;57205;51.438;-2.006;2023-02-20T11:25:32;101839.78;;;10.93;100.00
66668;BME280;57205;51.438;-2.006;2023-02-20T11:30:42;101831.75;;;10.93;100.00
66668;BME280;57205;51.438;-2.006;2023-02-20T11:33:14;101822.75;;;10.99;100.00
66668;BME280;57205;51.438;-2.006;2023-02-20T11:35:41;101825.31;;;11.05;100.00
66668;BME280;57205;51.438;-2.006;2023-02-20T11:40:36;101827.56;;;11.25;100.00
66668;BME280;57205;51.438;-2.006;2023-02-20T11:46:06;101824.41;;;11.28;100.00
66668;BME280;57205;51.438;-2.006;2023-02-20T11:48:32;101814.38;;;11.35;100.00
66668;BME280;57205;51.438;-2.006;2023-02-20T11:50:57;101808.53;;;11.38;100.00
66668;BME280;57205;51.438;-2.006;2023-02-20T11:53:26;101816.31;;;11.39;100.00
66668;BME280;57205;51.438;-2.006;2023-02-20T11:56:16;101810.19;;;11.39;100.00
66668;BME280;57205;51.438;-2.006;2023-02-20T11:58:39;101807.16;;;11.52;100.00
66668;BME280;57205;51.438;-2.006;2023-02-20T12:01:05;101810.41;;;11.54;100.00
66668;BME280;57205;51.438;-2.006;2023-02-20T12:03:31;101808.44;;;11.61;100.00
66668;BME280;57205;51.438;-2.006;2023-02-20T12:06:00;101808.63;;;11.71;100.00
66668;BME280;57205;51.438;-2.006;2023-02-20T12:10:52;101795.31;;;11.76;100.00
66668;BME280;57205;51.438;-2.006;2023-02-20T12:13:18;101789.78;;;11.83;100.00
66668;BME280;57205;51.438;-2.006;2023-02-20T12:15:54;101792.84;;;11.91;100.00
66668;BME280;57205;51.438;-2.006;2023-02-20T12:23:42;101777.13;;;11.95;100.00
66668;BME280;57205;51.438;-2.006;2023-02-20T12:33:56;101782.59;;;12.21;100.00
66668;BME280;57205;51.438;-2.006;2023-02-20T12:36:37;101760.41;;;12.26;100.00
66668;BME280;57205;51.438;-2.006;2023-02-20T12:52:04;101735.06;;;12.38;100.00
66668;BME280;57205;51.438;-2.006;2023-02-20T12:54:43;101731.81;;;12.36;100.00
66668;BME280;57205;51.438;-2.006;2023-02-20T12:59:57;101728.25;;;12.52;100.00
66668;BME280;57205;51.438;-2.006;2023-02-20T13:04:52;101712.50;;;12.56;100.00
66668;BME280;57205;51.438;-2.006;2023-02-20T13:07:20;101722.31;;;12.50;100.00
66668;BME280;57205;51.438;-2.006;2023-02-20T13:09:58;101716.44;;;12.48;100.00
66668;BME280;57205;51.438;-2.006;2023-02-20T13:12:24;101708.47;;;12.58;100.00
66668;BME280;57205;51.438;-2.006;2023-02-20T13:15:06;101712.53;;;12.61;100.00
66668;BME280;57205;51.438;-2.006;2023-02-20T13:17:42;101716.91;;;12.67;100.00
66668;BME280;57205;51.438;-2.006;2023-02-20T13:20:54;101711.34;;;12.73;100.00
66668;BME280;57205;51.438;-2.006;2023-02-20T13:23:04;101714.91;;;12.79;100.00
66668;BME280;57205;51.438;-2.006;2023-02-20T13:28:03;101695.78;;;12.75;100.00
66668;BME280;57205;51.438;-2.006;2023-02-20T13:30:37;101695.22;;;12.73;100.00
66668;BME280;57205;51.438;-2.006;2023-02-20T13:33:16;101694.63;;;12.66;100.00
66668;BME280;57205;51.438;-2.006;2023-02-20T13:38:14;101691.53;;;12.80;100.00
66668;BME280;57205;51.438;-2.006;2023-02-20T13:40:43;101688.59;;;12.81;100.00
66668;BME280;57205;51.438;-2.006;2023-02-20T13:45:38;101667.97;;;12.87;100.00
66668;BME280;57205;51.438;-2.006;2023-02-20T13:50:49;101664.25;;;12.66;100.00
66668;BME280;57205;51.438;-2.006;2023-02-20T13:53:14;101661.28;;;12.62;100.00
66668;BME280;57205;51.438;-2.006;2023-02-20T13:55:40;101666.63;;;12.62;100.00
66668;BME280;57205;51.438;-2.006;2023-02-20T13:58:11;101660.28;;;12.68;100.00
66668;BME280;57205;51.438;-2.006;2023-02-20T14:03:20;101647.50;;;12.81;100.00
66668;BME280;57205;51.438;-2.006;2023-02-20T14:05:45;101655.84;;;12.84;100.00
66668;BME280;57205;51.438;-2.006;2023-02-20T14:08:15;101659.34;;;12.85;100.00
66668;BME280;57205;51.438;-2.006;2023-02-20T14:10:40;101648.91;;;12.88;100.00
66668;BME280;57205;51.438;-2.006;2023-02-20T14:13:12;101652.31;;;12.78;100.00
66668;BME280;57205;51.438;-2.006;2023-02-20T14:15:46;101650.19;;;12.81;100.00
66668;BME280;57205;51.438;-2.006;2023-02-20T14:18:34;101649.44;;;12.85;100.00
66668;BME280;57205;51.438;-2.006;2023-02-20T14:23:30;101647.22;;;12.82;100.00
66668;BME280;57205;51.438;-2.006;2023-02-20T14:25:58;101644.25;;;12.78;100.00
66668;BME280;57205;51.438;-2.006;2023-02-20T14:28:24;101639.50;;;12.86;100.00